Time;durP1;ratioP1;P1;durP2;ratioP2;P2;SDS_P1;SDS_P2;PMS_P1;PMS_P2;Temp;Humidity;BMP_temperature;BMP_pressure;BME280_temperature;BME280_humidity;BME280_pressure;Samples;Min_cycle;Max_cycle;Signal;HPM_P1;HPM_P2
2022/04/27 00:02:36;;;;;;;0.70;0.70;;;;;;;;;;5035665;28;20214;-56
2022/04/27 00:05:23;;;;;;;0.50;0.50;;;;;;;;;;5037910;28;21028;-56
2022/04/27 00:08:10;;;;;;;1.83;0.60;;;;;;;;;;5041953;28;20254;-56
2022/04/27 00:10:59;;;;;;;0.60;0.60;;;;;;;;;;5028409;28;20213;-56
2022/04/27 00:13:46;;;;;;;0.50;0.50;;;;;;;;;;5037463;28;20817;-56
2022/04/27 00:16:32;;;;;;;0.60;0.60;;;;;;;;;;5037566;28;20222;-56
2022/04/27 00:19:19;;;;;;;0.60;0.60;;;;;;;;;;5037981;28;20258;-56
2022/04/27 00:22:06;;;;;;;0.60;0.60;;;;;;;;;;5036452;28;20293;-56
2022/04/27 00:24:53;;;;;;;0.60;0.60;;;;;;;;;;5034382;28;20206;-56
2022/04/27 00:27:41;;;;;;;0.60;0.60;;;;;;;;;;5036709;28;20695;-56
2022/04/27 00:30:28;;;;;;;0.67;0.67;;;;;;;;;;5036255;28;20309;-56
2022/04/27 00:33:16;;;;;;;0.47;0.47;;;;;;;;;;5035940;28;20297;-56
2022/04/27 00:36:03;;;;;;;0.67;0.67;;;;;;;;;;5037487;28;20210;-57
2022/04/27 00:38:50;;;;;;;0.77;0.67;;;;;;;;;;5038829;28;20217;-56
2022/04/27 00:41:37;;;;;;;0.70;0.67;;;;;;;;;;5041391;28;20676;-56
2022/04/27 00:44:25;;;;;;;0.77;0.70;;;;;;;;;;5033084;28;20224;-56
2022/04/27 00:47:13;;;;;;;0.67;0.67;;;;;;;;;;5039427;28;20316;-55
2022/04/27 00:50:02;;;;;;;0.47;0.40;;;;;;;;;;5034513;28;20789;-56
2022/04/27 00:52:50;;;;;;;0.57;0.57;;;;;;;;;;5035511;28;20723;-56
2022/04/27 00:55:37;;;;;;;0.70;0.70;;;;;;;;;;5035434;28;20212;-56
2022/04/27 00:58:25;;;;;;;0.70;0.70;;;;;;;;;;5041208;28;20203;-56
2022/04/27 01:01:13;;;;;;;0.83;0.83;;;;;;;;;;5034988;28;20648;-55
2022/04/27 01:04:00;;;;;;;0.60;0.60;;;;;;;;;;5042822;28;20203;-56
2022/04/27 01:06:48;;;;;;;0.57;0.57;;;;;;;;;;5035473;28;20217;-56
2022/04/27 01:09:35;;;;;;;0.70;0.70;;;;;;;;;;5043810;28;20691;-56
2022/04/27 01:12:22;;;;;;;0.87;0.87;;;;;;;;;;5034325;28;20213;-56
2022/04/27 01:15:10;;;;;;;0.60;0.60;;;;;;;;;;5041881;28;20747;-55
2022/04/27 01:17:58;;;;;;;0.60;0.60;;;;;;;;;;5041584;28;20697;-56
2022/04/27 01:20:47;;;;;;;0.50;0.50;;;;;;;;;;5036047;28;20319;-56
2022/04/27 01:23:34;;;;;;;0.60;0.60;;;;;;;;;;5032903;28;20764;-56
2022/04/27 01:26:21;;;;;;;0.50;0.50;;;;;;;;;;5037518;28;20203;-56
2022/04/27 01:29:07;;;;;;;1.17;0.60;;;;;;;;;;5042821;28;20327;-56
2022/04/27 01:31:55;;;;;;;0.70;0.70;;;;;;;;;;5039888;28;20254;-56
2022/04/27 01:34:42;;;;;;;0.80;0.80;;;;;;;;;;5037766;28;20245;-56
2022/04/27 01:40:35;;;;;;;0.70;0.70;;;;;;;;;;5041112;28;20226;-55
2022/04/27 01:43:24;;;;;;;0.90;0.63;;;;;;;;;;5041543;28;20339;-56
2022/04/27 01:46:11;;;;;;;0.50;0.50;;;;;;;;;;5038073;28;20230;-55
2022/04/27 01:48:58;;;;;;;0.63;0.60;;;;;;;;;;5031741;28;20237;-55
2022/04/27 01:54:51;;;;;;;0.60;0.60;;;;;;;;;;5030374;28;20622;-56
2022/04/27 01:57:38;;;;;;;1.40;0.90;;;;;;;;;;5032719;28;20210;-56
2022/04/27 02:00:25;;;;;;;0.77;0.77;;;;;;;;;;5034098;28;20234;-56
2022/04/27 02:03:13;;;;;;;0.73;0.73;;;;;;;;;;5029436;28;20215;-56
2022/04/27 02:05:59;;;;;;;0.60;0.60;;;;;;;;;;5031591;28;20580;-56
2022/04/27 02:08:46;;;;;;;0.80;0.80;;;;;;;;;;5030398;28;20205;-56
2022/04/27 02:11:35;;;;;;;0.70;0.70;;;;;;;;;;5031377;28;20286;-56
2022/04/27 02:14:22;;;;;;;0.70;0.70;;;;;;;;;;5031769;28;20954;-57
2022/04/27 02:17:09;;;;;;;1.50;0.50;;;;;;;;;;5030593;28;20205;-57
2022/04/27 02:19:56;;;;;;;1.07;0.70;;;;;;;;;;5029951;28;20316;-56
2022/04/27 02:22:43;;;;;;;0.60;0.60;;;;;;;;;;5030318;28;20241;-57
2022/04/27 02:25:30;;;;;;;0.60;0.60;;;;;;;;;;5029690;28;20207;-57
2022/04/27 02:28:19;;;;;;;0.83;0.70;;;;;;;;;;5030432;28;20215;-56
2022/04/27 02:31:06;;;;;;;0.73;0.73;;;;;;;;;;5033231;28;20288;-56
2022/04/27 02:33:53;;;;;;;0.70;0.70;;;;;;;;;;5031411;28;20212;-56
2022/04/27 02:36:40;;;;;;;1.53;0.83;;;;;;;;;;5032189;28;20744;-57
2022/04/27 02:39:27;;;;;;;0.60;0.60;;;;;;;;;;5033991;28;20690;-56
2022/04/27 02:42:15;;;;;;;0.80;0.80;;;;;;;;;;5031834;28;20213;-56
2022/04/27 02:45:04;;;;;;;0.50;0.50;;;;;;;;;;5030108;28;20205;-57
2022/04/27 02:47:51;;;;;;;0.60;0.60;;;;;;;;;;5039986;28;20248;-57
2022/04/27 02:53:43;;;;;;;0.83;0.70;;;;;;;;;;5041150;28;20230;-56
2022/04/27 02:56:29;;;;;;;0.90;0.90;;;;;;;;;;5041583;28;20260;-57
2022/04/27 02:59:17;;;;;;;0.60;0.60;;;;;;;;;;5042448;28;20237;-56
2022/04/27 03:02:05;;;;;;;0.80;0.80;;;;;;;;;;5041638;28;20335;-57
2022/04/27 03:04:52;;;;;;;0.73;0.73;;;;;;;;;;5037839;28;20499;-56
2022/04/27 03:07:39;;;;;;;0.50;0.50;;;;;;;;;;5037546;28;20290;-56
2022/04/27 03:10:26;;;;;;;0.70;0.70;;;;;;;;;;5039562;28;20292;-56
2022/04/27 03:13:13;;;;;;;0.60;0.60;;;;;;;;;;5042506;28;20670;-56
2022/04/27 03:16:00;;;;;;;1.00;0.80;;;;;;;;;;5032592;28;20235;-56
2022/04/27 03:18:48;;;;;;;0.70;0.70;;;;;;;;;;5039823;28;20300;-56
2022/04/27 03:21:35;;;;;;;0.57;0.50;;;;;;;;;;5035924;28;20303;-56
2022/04/27 03:24:22;;;;;;;0.80;0.80;;;;;;;;;;5036659;28;20253;-57
2022/04/27 03:27:09;;;;;;;0.50;0.50;;;;;;;;;;5038079;28;20580;-57
2022/04/27 03:29:56;;;;;;;0.60;0.60;;;;;;;;;;5032592;28;20218;-56
2022/04/27 03:32:43;;;;;;;0.40;0.40;;;;;;;;;;5037601;28;20744;-56
2022/04/27 03:35:31;;;;;;;0.70;0.70;;;;;;;;;;5036960;28;20342;-56
2022/04/27 03:38:19;;;;;;;0.50;0.50;;;;;;;;;;5036834;28;20710;-57
2022/04/27 03:41:07;;;;;;;1.30;0.50;;;;;;;;;;5036184;28;20384;-57
2022/04/27 03:43:54;;;;;;;0.77;0.77;;;;;;;;;;5039980;28;20211;-57
2022/04/27 03:46:41;;;;;;;0.60;0.60;;;;;;;;;;5043956;28;20369;-56
2022/04/27 03:49:28;;;;;;;0.60;0.60;;;;;;;;;;5048341;28;20296;-56
2022/04/27 03:52:16;;;;;;;0.70;0.70;;;;;;;;;;5051721;28;20301;-55
2022/04/27 03:55:04;;;;;;;0.70;0.70;;;;;;;;;;5048836;28;20243;-55
2022/04/27 03:57:51;;;;;;;0.50;0.50;;;;;;;;;;5055255;28;20292;-55
2022/04/27 04:00:38;;;;;;;0.50;0.50;;;;;;;;;;5052237;28;20721;-56
2022/04/27 04:03:24;;;;;;;0.53;0.53;;;;;;;;;;5049730;28;20326;-56
2022/04/27 04:06:11;;;;;;;0.73;0.70;;;;;;;;;;5047483;28;20214;-56
2022/04/27 04:09:00;;;;;;;0.70;0.70;;;;;;;;;;5050170;28;20334;-55
2022/04/27 04:11:46;;;;;;;0.60;0.60;;;;;;;;;;5047777;28;20202;-56
2022/04/27 04:14:34;;;;;;;0.60;0.60;;;;;;;;;;5050965;28;20300;-55
2022/04/27 04:17:21;;;;;;;0.73;0.73;;;;;;;;;;5047606;28;20222;-55
2022/04/27 04:20:09;;;;;;;0.70;0.70;;;;;;;;;;5050005;28;20236;-56
2022/04/27 04:22:56;;;;;;;0.50;0.50;;;;;;;;;;5048862;28;20289;-56
2022/04/27 04:28:49;;;;;;;0.70;0.70;;;;;;;;;;5050538;28;20241;-55
2022/04/27 04:31:36;;;;;;;0.83;0.80;;;;;;;;;;5047411;28;20582;-56
2022/04/27 04:34:23;;;;;;;0.53;0.53;;;;;;;;;;5049221;28;20249;-56
2022/04/27 04:37:10;;;;;;;0.60;0.60;;;;;;;;;;5047905;28;20297;-55
2022/04/27 04:39:57;;;;;;;0.70;0.70;;;;;;;;;;5049811;28;20214;-56
2022/04/27 04:42:45;;;;;;;0.70;0.70;;;;;;;;;;5056127;28;20299;-56
2022/04/27 04:45:32;;;;;;;0.77;0.77;;;;;;;;;;5052805;28;20317;-55
2022/04/27 04:48:22;;;;;;;1.00;1.00;;;;;;;;;;5057220;28;20570;-55
2022/04/27 04:51:09;;;;;;;0.60;0.60;;;;;;;;;;5053228;28;20203;-56
2022/04/27 04:53:56;;;;;;;0.70;0.70;;;;;;;;;;5053802;28;20280;-56
2022/04/27 04:56:42;;;;;;;0.90;0.80;;;;;;;;;;5052474;28;20306;-56
2022/04/27 04:59:31;;;;;;;0.83;0.83;;;;;;;;;;5053322;28;20633;-56
2022/04/27 05:02:18;;;;;;;0.90;0.90;;;;;;;;;;5051355;28;20246;-56
2022/04/27 05:05:06;;;;;;;0.80;0.80;;;;;;;;;;5052167;28;20690;-55
2022/04/27 05:07:53;;;;;;;0.60;0.60;;;;;;;;;;5054399;28;20346;-56
2022/04/27 05:10:40;;;;;;;1.10;1.03;;;;;;;;;;5052101;28;20209;-55
2022/04/27 05:13:27;;;;;;;1.07;0.70;;;;;;;;;;5052621;28;20328;-55
2022/04/27 05:16:15;;;;;;;1.00;0.90;;;;;;;;;;5052696;28;20294;-56
2022/04/27 05:19:02;;;;;;;0.70;0.70;;;;;;;;;;5054102;28;20236;-56
2022/04/27 05:21:49;;;;;;;0.80;0.80;;;;;;;;;;5052572;28;20257;-56
2022/04/27 05:24:36;;;;;;;1.03;1.03;;;;;;;;;;5054985;28;20699;-57
2022/04/27 05:27:24;;;;;;;0.77;0.77;;;;;;;;;;5054360;28;20299;-56
2022/04/27 05:33:26;;;;;;;0.80;0.80;;;;;;;;;;5015583;28;20249;-56
2022/04/27 05:36:13;;;;;;;1.73;0.70;;;;;;;;;;5050914;28;20209;-57
2022/04/27 05:38:59;;;;;;;0.87;0.80;;;;;;;;;;5051188;28;20672;-57
2022/04/27 05:41:47;;;;;;;0.67;0.67;;;;;;;;;;5052892;28;20312;-56
2022/04/27 05:44:34;;;;;;;0.80;0.80;;;;;;;;;;5054688;28;20650;-56
2022/04/27 05:47:23;;;;;;;0.60;0.60;;;;;;;;;;5051682;28;20245;-56
2022/04/27 05:50:11;;;;;;;0.70;0.70;;;;;;;;;;5053158;28;20676;-56
2022/04/27 05:52:59;;;;;;;0.83;0.60;;;;;;;;;;5051486;28;20305;-56
2022/04/27 05:55:46;;;;;;;0.80;0.80;;;;;;;;;;5054045;28;20294;-57
2022/04/27 05:58:33;;;;;;;0.80;0.60;;;;;;;;;;5054109;28;20216;-56
2022/04/27 06:01:20;;;;;;;0.90;0.70;;;;;;;;;;5054612;28;20311;-56
2022/04/27 06:04:07;;;;;;;1.23;0.90;;;;;;;;;;5050179;28;20284;-56
2022/04/27 06:06:55;;;;;;;0.80;0.80;;;;;;;;;;5052875;28;20292;-57
2022/04/27 06:09:42;;;;;;;2.47;0.80;;;;;;;;;;5050043;28;20744;-57
2022/04/27 06:12:34;;;;;;;0.50;0.50;;;;;;;;;;5053700;28;20283;-57
2022/04/27 06:15:21;;;;;;;0.70;0.65;;;;;;;;;;5050302;28;20211;-54
2022/04/27 06:18:09;;;;;;;0.70;0.70;;;;;;;;;;5051025;28;20313;-55
2022/04/27 06:20:56;;;;;;;0.50;0.50;;;;;;;;;;5050196;28;20211;-55
2022/04/27 06:23:44;;;;;;;1.52;0.80;;;;;;;;;;5051888;28;20208;-55
2022/04/27 06:26:33;;;;;;;0.60;0.60;;;;;;;;;;5049560;28;20332;-55
2022/04/27 06:29:20;;;;;;;2.38;0.75;;;;;;;;;;5051639;28;20211;-55
2022/04/27 06:32:07;;;;;;;0.80;0.57;;;;;;;;;;5052027;28;20279;-55
2022/04/27 06:34:54;;;;;;;0.63;0.63;;;;;;;;;;5056475;28;20299;-56
2022/04/27 06:37:41;;;;;;;0.60;0.60;;;;;;;;;;5052657;28;20254;-55
2022/04/27 06:40:30;;;;;;;0.50;0.50;;;;;;;;;;5055863;28;20247;-55
2022/04/27 06:43:16;;;;;;;1.77;0.73;;;;;;;;;;5053993;28;20199;-56
2022/04/27 06:46:03;;;;;;;0.50;0.50;;;;;;;;;;5048402;28;20286;-55
2022/04/27 06:48:50;;;;;;;0.65;0.50;;;;;;;;;;5045941;28;20785;-55
2022/04/27 06:51:37;;;;;;;0.40;0.40;;;;;;;;;;5050448;28;20220;-56
2022/04/27 06:54:24;;;;;;;0.57;0.57;;;;;;;;;;5051564;28;20234;-56
2022/04/27 06:57:13;;;;;;;1.10;0.50;;;;;;;;;;5052218;28;20656;-54
2022/04/27 07:00:00;;;;;;;0.60;0.60;;;;;;;;;;5048272;28;20210;-55
2022/04/27 07:02:47;;;;;;;0.60;0.60;;;;;;;;;;5053277;28;20223;-54
2022/04/27 07:05:34;;;;;;;0.60;0.50;;;;;;;;;;5049059;28;20251;-55
2022/04/27 07:08:21;;;;;;;0.50;0.50;;;;;;;;;;5049794;28;20227;-54
2022/04/27 07:11:07;;;;;;;0.40;0.40;;;;;;;;;;5051077;28;20729;-54
2022/04/27 07:13:56;;;;;;;0.50;0.50;;;;;;;;;;5049098;28;20257;-55
2022/04/27 07:16:43;;;;;;;1.13;0.50;;;;;;;;;;5052652;28;20211;-55
2022/04/27 07:19:30;;;;;;;0.40;0.40;;;;;;;;;;5051761;28;20208;-56
2022/04/27 07:22:16;;;;;;;0.40;0.40;;;;;;;;;;5052703;28;20255;-54
2022/04/27 07:25:04;;;;;;;0.50;0.38;;;;;;;;;;5049725;28;20243;-54
2022/04/27 07:27:51;;;;;;;0.40;0.40;;;;;;;;;;5051696;28;20235;-54
2022/04/27 07:30:39;;;;;;;0.68;0.50;;;;;;;;;;5049164;28;20330;-55
2022/04/27 07:33:26;;;;;;;0.50;0.50;;;;;;;;;;5053533;28;20207;-54
2022/04/27 07:36:13;;;;;;;0.52;0.50;;;;;;;;;;5052150;28;20281;-54
2022/04/27 07:39:00;;;;;;;0.50;0.50;;;;;;;;;;5048816;28;20266;-55
2022/04/27 07:41:47;;;;;;;0.40;0.40;;;;;;;;;;5049315;28;20354;-55
2022/04/27 07:44:34;;;;;;;0.50;0.50;;;;;;;;;;5047791;28;20307;-54
2022/04/27 07:47:22;;;;;;;0.88;0.52;;;;;;;;;;5047933;28;20322;-55
2022/04/27 07:50:10;;;;;;;0.30;0.30;;;;;;;;;;5048049;28;20211;-54
2022/04/27 07:52:57;;;;;;;0.57;0.57;;;;;;;;;;5055353;28;20649;-55
2022/04/27 07:55:44;;;;;;;0.32;0.30;;;;;;;;;;5050939;28;20218;-56
2022/04/27 07:58:32;;;;;;;0.47;0.47;;;;;;;;;;5049022;28;20291;-56
2022/04/27 08:01:19;;;;;;;0.35;0.35;;;;;;;;;;5052279;28;20219;-55
2022/04/27 08:04:07;;;;;;;0.40;0.40;;;;;;;;;;5051088;28;20236;-54
2022/04/27 08:06:54;;;;;;;0.20;0.20;;;;;;;;;;5051866;28;20806;-55
2022/04/27 08:09:41;;;;;;;0.43;0.30;;;;;;;;;;5049089;28;20286;-55
2022/04/27 08:12:28;;;;;;;0.45;0.45;;;;;;;;;;5049333;28;20283;-55
2022/04/27 08:15:15;;;;;;;0.30;0.30;;;;;;;;;;5052955;28;20215;-55
2022/04/27 08:18:06;;;;;;;0.40;0.40;;;;;;;;;;5046988;28;20357;-54
2022/04/27 08:23:59;;;;;;;0.50;0.50;;;;;;;;;;5049947;28;20219;-54
2022/04/27 08:26:46;;;;;;;0.40;0.40;;;;;;;;;;5053151;28;20334;-54
2022/04/27 08:29:33;;;;;;;0.85;0.40;;;;;;;;;;5046449;28;20223;-55
2022/04/27 08:32:20;;;;;;;0.60;0.60;;;;;;;;;;5055328;28;20238;-54
2022/04/27 08:35:07;;;;;;;0.55;0.55;;;;;;;;;;5047202;28;20758;-55
2022/04/27 08:37:56;;;;;;;0.40;0.40;;;;;;;;;;5049584;28;20291;-54
2022/04/27 08:40:45;;;;;;;1.45;0.47;;;;;;;;;;5049130;28;20282;-54
2022/04/27 08:43:32;;;;;;;0.40;0.40;;;;;;;;;;5049981;28;20277;-54
2022/04/27 08:46:19;;;;;;;0.55;0.40;;;;;;;;;;5046878;28;20240;-55
2022/04/27 08:49:09;;;;;;;0.40;0.40;;;;;;;;;;5052123;28;20215;-54
2022/04/27 08:52:00;;;;;;;1.02;0.50;;;;;;;;;;5049529;28;20204;-55
2022/04/27 08:54:49;;;;;;;0.50;0.50;;;;;;;;;;5046394;28;20287;-54
2022/04/27 08:57:37;;;;;;;0.43;0.30;;;;;;;;;;5049532;28;20208;-54
2022/04/27 09:00:24;;;;;;;0.40;0.40;;;;;;;;;;5049067;28;20293;-54
2022/04/27 09:03:24;;;;;;;0.43;0.43;;;;;;;;;;5050771;28;20324;-55
2022/04/27 09:06:13;;;;;;;0.32;0.32;;;;;;;;;;5048348;28;20244;-55
2022/04/27 09:09:00;;;;;;;0.40;0.40;;;;;;;;;;5048395;28;20215;-55
2022/04/27 09:11:53;;;;;;;0.40;0.40;;;;;;;;;;5046824;28;20278;-56
2022/04/27 09:14:42;;;;;;;0.82;0.40;;;;;;;;;;5055081;28;20709;-55
2022/04/27 09:23:41;;;;;;;0.40;0.40;;;;;;;;;;5051660;28;20231;-55
2022/04/27 09:26:31;;;;;;;0.30;0.30;;;;;;;;;;5057563;28;20230;-55
2022/04/27 09:29:25;;;;;;;0.32;0.30;;;;;;;;;;5049692;28;20263;-56
2022/04/27 09:32:17;;;;;;;0.50;0.50;;;;;;;;;;5050720;28;20298;-55
2022/04/27 09:35:08;;;;;;;0.50;0.40;;;;;;;;;;5053882;28;20208;-56
2022/04/27 09:37:55;;;;;;;0.40;0.40;;;;;;;;;;5053025;28;20214;-55
2022/04/27 09:40:47;;;;;;;0.35;0.35;;;;;;;;;;5054793;28;20286;-56
2022/04/27 09:43:44;;;;;;;0.30;0.30;;;;;;;;;;5051196;28;20928;-56
2022/04/27 09:46:40;;;;;;;0.50;0.40;;;;;;;;;;5057249;28;20623;-60
2022/04/27 09:49:27;;;;;;;0.30;0.30;;;;;;;;;;5051504;28;20219;-55
2022/04/27 09:52:15;;;;;;;0.40;0.40;;;;;;;;;;5049719;28;20207;-55
2022/04/27 09:55:03;;;;;;;0.50;0.50;;;;;;;;;;5055076;28;20207;-56
2022/04/27 09:57:56;;;;;;;0.35;0.35;;;;;;;;;;5054602;28;20326;-55
2022/04/27 10:00:44;;;;;;;0.50;0.50;;;;;;;;;;5049772;28;20613;-55
2022/04/27 10:03:35;;;;;;;0.30;0.30;;;;;;;;;;5050541;28;20228;-55
2022/04/27 10:06:22;;;;;;;0.40;0.40;;;;;;;;;;5052355;28;20210;-55
2022/04/27 10:09:09;;;;;;;0.32;0.32;;;;;;;;;;5050164;28;20248;-55
2022/04/27 10:11:57;;;;;;;0.40;0.38;;;;;;;;;;5052228;28;20423;-55
2022/04/27 10:14:45;;;;;;;0.45;0.45;;;;;;;;;;5056442;28;20291;-55
2022/04/27 10:17:33;;;;;;;0.40;0.40;;;;;;;;;;5051478;28;20208;-55
2022/04/27 10:20:29;;;;;;;0.30;0.30;;;;;;;;;;5052241;28;20214;-56
2022/04/27 10:23:21;;;;;;;0.32;0.32;;;;;;;;;;5049404;28;20284;-55
2022/04/27 10:26:14;;;;;;;0.28;0.28;;;;;;;;;;5049582;28;20204;-56
2022/04/27 10:29:05;;;;;;;0.52;0.52;;;;;;;;;;5050516;28;20299;-55
2022/04/27 10:31:59;;;;;;;0.65;0.38;;;;;;;;;;5049883;28;20786;-55
2022/04/27 10:35:17;;;;;;;0.55;0.30;;;;;;;;;;5049372;28;20205;-56
2022/04/27 10:38:06;;;;;;;0.30;0.30;;;;;;;;;;5059164;28;20272;-55
2022/04/27 10:41:04;;;;;;;0.43;0.43;;;;;;;;;;5052892;28;20207;-55
2022/04/27 10:43:51;;;;;;;0.20;0.20;;;;;;;;;;5048374;28;20738;-54
2022/04/27 10:46:39;;;;;;;0.40;0.40;;;;;;;;;;5048347;28;20729;-55
2022/04/27 10:49:28;;;;;;;0.30;0.30;;;;;;;;;;5049878;28;20569;-56
2022/04/27 10:52:16;;;;;;;0.30;0.30;;;;;;;;;;5051044;28;20218;-55
2022/04/27 10:55:06;;;;;;;0.20;0.20;;;;;;;;;;5052462;28;20258;-55
2022/04/27 10:58:12;;;;;;;0.60;0.60;;;;;;;;;;5052680;28;20212;-55
2022/04/27 11:01:30;;;;;;;1.20;0.43;;;;;;;;;;5048829;28;20218;-55
2022/04/27 11:04:17;;;;;;;0.50;0.50;;;;;;;;;;5048094;28;20226;-55
2022/04/27 11:07:32;;;;;;;0.47;0.47;;;;;;;;;;5054131;28;20562;-56
2022/04/27 11:10:21;;;;;;;0.30;0.30;;;;;;;;;;5050710;28;20262;-56
2022/04/27 11:13:11;;;;;;;0.30;0.30;;;;;;;;;;5048877;28;20309;-56
2022/04/27 11:16:07;;;;;;;0.40;0.40;;;;;;;;;;5049851;28;20210;-55
2022/04/27 11:18:55;;;;;;;0.50;0.40;;;;;;;;;;5054593;28;20614;-55
2022/04/27 11:21:42;;;;;;;0.40;0.40;;;;;;;;;;5052227;28;20295;-55
2022/04/27 11:24:29;;;;;;;0.30;0.30;;;;;;;;;;5049356;28;20357;-56
2022/04/27 11:27:26;;;;;;;0.30;0.30;;;;;;;;;;5050605;28;20333;-56
2022/04/27 11:30:14;;;;;;;0.20;0.20;;;;;;;;;;5047639;28;20206;-56
2022/04/27 11:33:02;;;;;;;0.40;0.40;;;;;;;;;;5047949;28;20206;-56
2022/04/27 11:35:49;;;;;;;0.50;0.50;;;;;;;;;;5052196;28;20248;-55
2022/04/27 11:38:37;;;;;;;0.40;0.40;;;;;;;;;;5047698;28;20649;-56
2022/04/27 11:41:24;;;;;;;0.50;0.43;;;;;;;;;;5049380;28;20288;-56
2022/04/27 11:44:20;;;;;;;0.40;0.40;;;;;;;;;;5048308;28;20313;-55
2022/04/27 11:47:26;;;;;;;0.40;0.40;;;;;;;;;;5054152;28;20243;-56
2022/04/27 11:50:18;;;;;;;0.30;0.30;;;;;;;;;;5048114;28;20207;-56
2022/04/27 11:53:07;;;;;;;0.30;0.30;;;;;;;;;;5051543;28;20486;-55
2022/04/27 11:55:55;;;;;;;0.40;0.40;;;;;;;;;;5047824;28;20221;-56
2022/04/27 11:58:44;;;;;;;0.30;0.30;;;;;;;;;;5051049;28;20328;-55
2022/04/27 12:01:32;;;;;;;0.30;0.30;;;;;;;;;;5048548;28;20290;-55
2022/04/27 12:04:19;;;;;;;0.20;0.20;;;;;;;;;;5047107;28;20226;-55
2022/04/27 12:07:12;;;;;;;0.40;0.40;;;;;;;;;;5051602;28;20250;-55
2022/04/27 12:10:01;;;;;;;0.40;0.40;;;;;;;;;;5047360;28;20738;-56
2022/04/27 12:12:48;;;;;;;0.40;0.40;;;;;;;;;;5050202;28;20211;-56
2022/04/27 12:15:39;;;;;;;0.23;0.23;;;;;;;;;;5048214;28;20259;-56
2022/04/27 12:18:28;;;;;;;0.30;0.30;;;;;;;;;;5046873;28;20271;-56
2022/04/27 12:21:21;;;;;;;0.40;0.40;;;;;;;;;;5048816;28;20645;-56
2022/04/27 12:24:17;;;;;;;0.50;0.50;;;;;;;;;;5048527;28;20240;-56
2022/04/27 12:27:17;;;;;;;0.40;0.40;;;;;;;;;;5047955;28;20211;-55
2022/04/27 12:30:06;;;;;;;0.37;0.30;;;;;;;;;;5045578;28;20687;-56
2022/04/27 12:32:53;;;;;;;0.30;0.30;;;;;;;;;;5051066;28;20295;-55
2022/04/27 12:38:57;;;;;;;0.30;0.30;;;;;;;;;;5048953;28;20202;-55
2022/04/27 12:41:46;;;;;;;0.30;0.30;;;;;;;;;;5049782;28;20701;-55
2022/04/27 12:44:39;;;;;;;0.30;0.30;;;;;;;;;;5050546;28;20245;-55
2022/04/27 12:47:26;;;;;;;0.37;0.30;;;;;;;;;;5038308;28;20299;-55
2022/04/27 12:50:13;;;;;;;0.40;0.40;;;;;;;;;;5036501;28;20243;-55
2022/04/27 12:53:09;;;;;;;0.40;0.40;;;;;;;;;;5041437;28;20331;-56
2022/04/27 12:56:22;;;;;;;0.40;0.40;;;;;;;;;;5036627;28;20292;-57
2022/04/27 12:59:12;;;;;;;0.30;0.30;;;;;;;;;;5030462;28;20226;-56
2022/04/27 13:02:00;;;;;;;0.33;0.30;;;;;;;;;;5040253;28;20211;-56
2022/04/27 13:04:47;;;;;;;0.40;0.40;;;;;;;;;;5039644;28;20234;-56
2022/04/27 13:07:35;;;;;;;0.47;0.47;;;;;;;;;;5041380;28;20211;-56
2022/04/27 13:13:27;;;;;;;0.60;0.40;;;;;;;;;;5038630;28;20283;-56
2022/04/27 13:16:14;;;;;;;0.40;0.40;;;;;;;;;;5043722;28;20636;-56
2022/04/27 13:19:01;;;;;;;0.40;0.40;;;;;;;;;;5036840;28;20724;-56
2022/04/27 13:21:48;;;;;;;0.40;0.40;;;;;;;;;;5040025;28;20553;-57
2022/04/27 13:24:35;;;;;;;0.50;0.50;;;;;;;;;;5039961;28;20310;-56
2022/04/27 13:27:25;;;;;;;0.57;0.40;;;;;;;;;;5040677;28;20216;-56
2022/04/27 13:30:12;;;;;;;0.33;0.33;;;;;;;;;;5038152;28;20706;-56
2022/04/27 13:32:59;;;;;;;0.30;0.30;;;;;;;;;;5038861;28;20330;-56
2022/04/27 13:35:46;;;;;;;1.13;0.60;;;;;;;;;;5037761;28;20686;-56
2022/04/27 13:38:33;;;;;;;0.47;0.47;;;;;;;;;;5038732;28;20230;-56
2022/04/27 13:41:21;;;;;;;1.17;0.50;;;;;;;;;;5039380;28;20251;-56
2022/04/27 13:44:10;;;;;;;0.60;0.40;;;;;;;;;;5040772;28;20642;-56
2022/04/27 13:46:58;;;;;;;0.67;0.40;;;;;;;;;;5044499;28;20297;-57
2022/04/27 13:49:46;;;;;;;0.40;0.40;;;;;;;;;;5042406;28;20249;-56
2022/04/27 13:52:33;;;;;;;0.37;0.37;;;;;;;;;;5039495;28;20567;-57
2022/04/27 13:55:20;;;;;;;0.50;0.40;;;;;;;;;;5040051;28;20204;-56
2022/04/27 13:58:07;;;;;;;0.40;0.40;;;;;;;;;;5038765;28;20237;-56
2022/04/27 14:00:55;;;;;;;0.40;0.40;;;;;;;;;;5041453;28;20855;-57
2022/04/27 14:03:42;;;;;;;0.50;0.50;;;;;;;;;;5040514;28;20230;-57
2022/04/27 14:06:30;;;;;;;0.57;0.50;;;;;;;;;;5042378;28;20702;-57
2022/04/27 14:09:17;;;;;;;0.60;0.60;;;;;;;;;;5035546;28;20674;-57
2022/04/27 14:15:11;;;;;;;0.70;0.70;;;;;;;;;;5035173;28;20256;-56
2022/04/27 14:18:11;;;;;;;0.60;0.60;;;;;;;;;;5042158;28;20674;-56
2022/04/27 14:20:59;;;;;;;0.60;0.60;;;;;;;;;;5036883;28;20205;-56
2022/04/27 14:23:46;;;;;;;0.70;0.70;;;;;;;;;;5036981;28;20248;-59
2022/04/27 14:26:33;;;;;;;0.50;0.50;;;;;;;;;;5038288;28;20241;-56
2022/04/27 14:29:20;;;;;;;0.60;0.60;;;;;;;;;;5038503;28;20238;-56
2022/04/27 14:32:07;;;;;;;0.67;0.67;;;;;;;;;;5037865;28;20607;-56
2022/04/27 14:34:56;;;;;;;1.80;0.77;;;;;;;;;;5037962;28;20257;-56
2022/04/27 14:37:44;;;;;;;0.30;0.30;;;;;;;;;;5042070;28;20212;-56
2022/04/27 14:40:33;;;;;;;2.53;0.70;;;;;;;;;;5040159;28;20221;-56
2022/04/27 14:43:20;;;;;;;0.70;0.70;;;;;;;;;;5037381;28;20217;-56
2022/04/27 14:46:07;;;;;;;0.63;0.60;;;;;;;;;;5041163;28;20271;-55
2022/04/27 14:48:54;;;;;;;0.47;0.47;;;;;;;;;;5036060;28;20732;-56
2022/04/27 14:51:44;;;;;;;0.60;0.60;;;;;;;;;;5041804;28;20293;-56
2022/04/27 14:54:31;;;;;;;0.43;0.43;;;;;;;;;;5038785;28;20208;-56
2022/04/27 14:57:18;;;;;;;0.53;0.53;;;;;;;;;;5041754;28;20258;-56
2022/04/27 15:00:06;;;;;;;0.50;0.50;;;;;;;;;;5040025;28;20215;-56
2022/04/27 15:02:55;;;;;;;0.50;0.50;;;;;;;;;;5042241;28;20577;-56
2022/04/27 15:05:42;;;;;;;0.60;0.60;;;;;;;;;;5035169;28;20220;-56
2022/04/27 15:08:31;;;;;;;0.40;0.40;;;;;;;;;;5040275;28;20681;-56
2022/04/27 15:11:18;;;;;;;0.60;0.60;;;;;;;;;;5035047;28;20223;-56
2022/04/27 15:14:05;;;;;;;0.70;0.70;;;;;;;;;;5038382;28;20213;-56
2022/04/27 15:16:51;;;;;;;0.50;0.50;;;;;;;;;;5042240;28;20332;-56
2022/04/27 15:19:38;;;;;;;0.40;0.40;;;;;;;;;;5037284;28;20223;-56
2022/04/27 15:22:44;;;;;;;0.60;0.60;;;;;;;;;;5032672;28;20235;-55
2022/04/27 15:25:32;;;;;;;0.30;0.30;;;;;;;;;;5037100;28;20227;-56
2022/04/27 15:28:20;;;;;;;0.30;0.30;;;;;;;;;;5032387;28;20269;-57
2022/04/27 15:31:07;;;;;;;0.50;0.50;;;;;;;;;;5036156;28;20721;-56
2022/04/27 15:33:53;;;;;;;0.40;0.40;;;;;;;;;;5037166;28;20207;-56
2022/04/27 15:36:40;;;;;;;0.57;0.57;;;;;;;;;;5041336;28;20335;-56
2022/04/27 15:39:27;;;;;;;1.23;0.50;;;;;;;;;;5038736;28;20631;-56
2022/04/27 15:42:16;;;;;;;0.57;0.57;;;;;;;;;;5039738;28;20249;-56
2022/04/27 15:45:03;;;;;;;0.50;0.50;;;;;;;;;;5038754;28;20269;-56
2022/04/27 15:47:53;;;;;;;0.60;0.60;;;;;;;;;;5052687;28;20302;-56
2022/04/27 15:50:41;;;;;;;0.40;0.40;;;;;;;;;;5048241;28;20216;-56
2022/04/27 15:53:28;;;;;;;0.50;0.50;;;;;;;;;;5048435;28;20311;-56
2022/04/27 15:56:15;;;;;;;0.40;0.40;;;;;;;;;;5047408;28;20211;-56
2022/04/27 15:59:04;;;;;;;0.50;0.50;;;;;;;;;;5049431;28;20211;-56
2022/04/27 16:01:52;;;;;;;0.50;0.50;;;;;;;;;;5054019;28;20219;-56
2022/04/27 16:04:39;;;;;;;0.60;0.60;;;;;;;;;;5051739;28;20713;-56
2022/04/27 16:07:26;;;;;;;0.30;0.30;;;;;;;;;;5051269;28;20203;-57
2022/04/27 16:10:13;;;;;;;0.50;0.50;;;;;;;;;;5047587;28;20293;-56
2022/04/27 16:13:00;;;;;;;0.70;0.50;;;;;;;;;;5048713;28;20242;-56
2022/04/27 16:15:49;;;;;;;0.63;0.63;;;;;;;;;;5046336;28;20304;-57
2022/04/27 16:18:36;;;;;;;0.50;0.50;;;;;;;;;;5046820;28;20704;-56
2022/04/27 16:24:28;;;;;;;0.40;0.40;;;;;;;;;;5051288;28;20333;-55
2022/04/27 16:27:15;;;;;;;1.33;0.63;;;;;;;;;;5048235;28;20211;-56
2022/04/27 16:30:02;;;;;;;0.50;0.50;;;;;;;;;;5050089;28;20309;-56
2022/04/27 16:32:50;;;;;;;0.33;0.33;;;;;;;;;;5051921;28;20690;-57
2022/04/27 16:35:37;;;;;;;0.60;0.60;;;;;;;;;;5048180;28;20642;-56
2022/04/27 16:38:24;;;;;;;0.47;0.47;;;;;;;;;;5052988;28;20882;-56
2022/04/27 16:41:11;;;;;;;0.60;0.60;;;;;;;;;;5050728;28;20260;-56
2022/04/27 16:43:58;;;;;;;0.50;0.50;;;;;;;;;;5055503;28;20301;-56
2022/04/27 16:46:45;;;;;;;0.50;0.50;;;;;;;;;;5052954;28;20230;-57
2022/04/27 16:49:34;;;;;;;0.50;0.50;;;;;;;;;;5054004;28;20218;-56
2022/04/27 16:52:21;;;;;;;0.57;0.57;;;;;;;;;;5052673;28;20219;-56
2022/04/27 16:55:08;;;;;;;0.40;0.40;;;;;;;;;;5051527;28;20613;-56
2022/04/27 16:57:55;;;;;;;0.50;0.50;;;;;;;;;;5052969;28;20211;-56
2022/04/27 17:00:55;;;;;;;0.60;0.60;;;;;;;;;;5051879;28;20285;-56
2022/04/27 17:03:42;;;;;;;0.40;0.40;;;;;;;;;;5057316;28;20595;-56
2022/04/27 17:06:30;;;;;;;0.30;0.30;;;;;;;;;;5052597;28;20290;-56
2022/04/27 17:09:17;;;;;;;0.40;0.40;;;;;;;;;;5054356;28;20295;-56
2022/04/27 17:12:05;;;;;;;0.70;0.60;;;;;;;;;;5051507;28;20218;-56
2022/04/27 17:14:52;;;;;;;0.40;0.40;;;;;;;;;;5063429;28;20243;-56
2022/04/27 17:17:39;;;;;;;0.60;0.60;;;;;;;;;;5055601;28;20235;-55
2022/04/27 17:20:26;;;;;;;0.50;0.50;;;;;;;;;;5049714;28;20684;-55
2022/04/27 17:23:15;;;;;;;1.37;0.60;;;;;;;;;;5049825;28;20718;-56
2022/04/27 17:29:07;;;;;;;0.77;0.73;;;;;;;;;;5057320;28;20206;-55
2022/04/27 17:31:54;;;;;;;0.50;0.50;;;;;;;;;;5049939;28;20287;-55